• Join FlightAware (Why Join?)
  • Login
  • US Flag 
01:20AM EDT


 

Airport Tracker/Info


-or-


 

Live Flight TrackerFlight Track Log ✈ CHQ6056 ✈ 23-Apr-2013 ✈ KIAD - KLGA

Flight Track Log - Related Links

Times and Time Zones

All times are in EDT time to prevent confusion due to time zone crossing. See the CHQ6056 flight status page for this flight to view local times or setup timezone preferences in your user account.

Time Position Orientation Groundspeed Altitude Reporting Facility
EDT Latitude Longitude Course Direction KTS MPH feet Rate Location/Type
10:44PM 38.9667 -77.5000 90° East 189 217 2,200  Level Potomac TRACON
10:45PM 39.0333 -77.5167 349° North 255 293 5,300 3,300 Climbing Potomac TRACON
10:46PM 38.9685 -77.0821 83° East  Level FlightAware Approximate
10:46PM 39.0833 -77.4667 38° Northeast 265 305 8,800  Level Potomac TRACON
10:47PM 38.9809 -76.9575 83° East  Level FlightAware Approximate
10:47PM 39.1500 -77.3667 49° Northeast 297 342 10,000  Level Potomac TRACON
10:48PM 38.9911 -76.8325 84° East  Level FlightAware Approximate
10:48PM 39.1500 -77.2500 90° East 369 425 10,500  Level Potomac TRACON
10:49PM 39.0000 -76.7074 90° East  Level FlightAware Approximate
10:50PM 39.0597 -76.9603 112° Southeast 383 441 15,300  Level Washington Center
10:51PM 39.0508 -76.8183 95° East 377 434 16,900 1,620 Climbing Washington Center
10:52PM 39.0439 -76.6767 94° East 382 440 18,600 1,020 Climbing Washington Center
10:53PM 39.0325 -76.5403 96° East 388 447 19,000 180 Climbing Washington Center
10:54PM 39.0253 -76.4119 94° East 383 441 19,000  Level Washington Center
10:55PM 39.0281 -76.2756 88° East 377 434 19,000  Level Washington Center
10:56PM 39.0453 -76.1583 79° East 372 428 19,000  Level Washington Center
10:57PM 39.0814 -76.0222 71° East 377 434 19,000  Level Washington Center
10:58PM 39.1236 -75.8858 68° East 389 448 19,000  Level Washington Center
10:59PM 39.1675 -75.7522 67° East 394 453 19,000  Level Washington Center
11:00PM 39.2447 -75.6533 45° Northeast 385 443 19,000  Level Washington Center
11:01PM 39.3217 -75.5567 44° Northeast 385 443 19,000  Level Washington Center
11:02PM 39.4008 -75.4600 43° Northeast 379 436 19,000  Level Washington Center
11:03PM 39.4758 -75.3658 44° Northeast 379 436 19,000  Level Washington Center
11:04PM 39.5464 -75.2794 43° Northeast 361 415 19,000  Level Washington Center
11:05PM 39.6128 -75.1956 44° Northeast 343 395 19,000  Level Washington Center
11:06PM 39.6792 -75.1144 43° Northeast 329 379 19,100 -480 Climbing Washington Center
11:07PM 39.7667 -75.0758 19° North 305 351 18,100 -1,320 Descending Washington Center
11:08PM 39.8372 -75.0431 20° North 297 342 16,500 -1,980 Descending Washington Center
11:10PM 39.9667 -74.8333 51° Northeast 307 353 11,700 -1,620 Descending New York TRACON
11:11PM 40.0167 -74.7500 52° Northeast 250 288 11,000 -780 Descending New York TRACON
11:12PM 40.0667 -74.7000 37° Northeast 235 270 10,200 -540 Descending New York TRACON
11:13PM 40.1167 -74.6333 46° Northeast 246 283 10,000 -120 Descending New York TRACON
11:14PM 40.1500 -74.5667 57° Northeast 236 272 10,000 -360 Level New York TRACON
11:15PM 40.2000 -74.5167 37° Northeast 201 231 9,300 -900 Descending New York TRACON
11:16PM 40.2333 -74.4500 57° Northeast 203 234 8,300 -840 Descending New York TRACON
11:17PM 40.2667 -74.4000 49° Northeast 194 223 7,700 -660 Descending New York TRACON
11:18PM 40.3167 -74.3667 27° Northeast 195 224 7,000 -360 Descending New York TRACON
11:19PM 40.3500 -74.3000 57° Northeast 199 229 7,000  Level New York TRACON
11:20PM 40.3833 -74.2333 57° Northeast 203 234 7,000 -240 Level New York TRACON
11:21PM 40.4000 -74.1833 66° East 201 231 6,600 -960 Descending New York TRACON
11:22PM 40.4500 -74.1500 27° Northeast 199 229 5,200 -1,260 Descending New York TRACON
11:23PM 40.5000 -74.1167 27° Northeast 187 215 4,100 -600 Descending New York TRACON
11:24PM 40.5333 -74.0833 37° Northeast 189 217 4,000 -60 Descending New York TRACON
11:25PM 40.5833 -74.0500 27° Northeast 163 188 4,000  Level New York TRACON